sensor_id;sensor_type;location;lat;lon;timestamp;P1;durP1;ratioP1;P2;durP2;ratioP2
17151;SDS011;8691;50.828;4.700;2023-05-29T00:00:34;5.20;;;3.30;;
17151;SDS011;8691;50.828;4.700;2023-05-29T00:03:11;5.70;;;3.40;;
17151;SDS011;8691;50.828;4.700;2023-05-29T00:05:48;5.43;;;3.60;;
17151;SDS011;8691;50.828;4.700;2023-05-29T00:08:25;5.30;;;3.23;;
17151;SDS011;8691;50.828;4.700;2023-05-29T00:11:02;7.63;;;3.80;;
17151;SDS011;8691;50.828;4.700;2023-05-29T00:13:38;5.97;;;3.47;;
17151;SDS011;8691;50.828;4.700;2023-05-29T00:16:15;6.27;;;3.50;;
17151;SDS011;8691;50.828;4.700;2023-05-29T00:18:52;6.03;;;3.63;;
17151;SDS011;8691;50.828;4.700;2023-05-29T00:21:28;7.73;;;4.13;;
17151;SDS011;8691;50.828;4.700;2023-05-29T00:24:05;7.10;;;3.90;;
17151;SDS011;8691;50.828;4.700;2023-05-29T00:26:42;6.70;;;4.17;;
17151;SDS011;8691;50.828;4.700;2023-05-29T00:29:18;7.73;;;4.50;;
17151;SDS011;8691;50.828;4.700;2023-05-29T00:31:55;7.55;;;4.90;;
17151;SDS011;8691;50.828;4.700;2023-05-29T00:34:32;6.10;;;4.10;;
17151;SDS011;8691;50.828;4.700;2023-05-29T00:37:08;7.10;;;4.17;;
17151;SDS011;8691;50.828;4.700;2023-05-29T00:39:45;7.23;;;4.13;;
17151;SDS011;8691;50.828;4.700;2023-05-29T00:42:22;6.80;;;4.13;;
17151;SDS011;8691;50.828;4.700;2023-05-29T00:44:58;6.53;;;4.50;;
17151;SDS011;8691;50.828;4.700;2023-05-29T00:47:35;7.23;;;4.37;;
17151;SDS011;8691;50.828;4.700;2023-05-29T00:50:12;7.73;;;4.40;;
17151;SDS011;8691;50.828;4.700;2023-05-29T00:52:51;6.95;;;5.10;;
17151;SDS011;8691;50.828;4.700;2023-05-29T00:55:29;9.45;;;5.75;;
17151;SDS011;8691;50.828;4.700;2023-05-29T00:58:05;8.67;;;4.13;;
17151;SDS011;8691;50.828;4.700;2023-05-29T01:00:42;5.37;;;3.87;;
17151;SDS011;8691;50.828;4.700;2023-05-29T01:03:18;9.05;;;5.50;;
17151;SDS011;8691;50.828;4.700;2023-05-29T01:05:55;5.97;;;5.30;;
17151;SDS011;8691;50.828;4.700;2023-05-29T01:08:32;6.43;;;4.73;;
17151;SDS011;8691;50.828;4.700;2023-05-29T01:11:13;7.03;;;4.90;;
17151;SDS011;8691;50.828;4.700;2023-05-29T01:13:48;6.40;;;4.67;;
17151;SDS011;8691;50.828;4.700;2023-05-29T01:16:33;8.97;;;4.80;;
17151;SDS011;8691;50.828;4.700;2023-05-29T01:19:16;9.63;;;5.37;;
17151;SDS011;8691;50.828;4.700;2023-05-29T01:22:12;7.10;;;4.70;;
17151;SDS011;8691;50.828;4.700;2023-05-29T01:24:58;9.00;;;5.17;;
17151;SDS011;8691;50.828;4.700;2023-05-29T01:27:50;7.83;;;5.10;;
17151;SDS011;8691;50.828;4.700;2023-05-29T01:30:27;13.30;;;6.03;;
17151;SDS011;8691;50.828;4.700;2023-05-29T01:33:03;9.07;;;5.20;;
17151;SDS011;8691;50.828;4.700;2023-05-29T01:35:40;10.17;;;5.43;;
17151;SDS011;8691;50.828;4.700;2023-05-29T01:38:16;10.20;;;5.60;;
17151;SDS011;8691;50.828;4.700;2023-05-29T01:40:53;7.43;;;6.20;;
17151;SDS011;8691;50.828;4.700;2023-05-29T01:43:30;11.13;;;5.83;;
17151;SDS011;8691;50.828;4.700;2023-05-29T01:46:06;17.10;;;6.67;;
17151;SDS011;8691;50.828;4.700;2023-05-29T01:48:43;9.10;;;5.70;;
17151;SDS011;8691;50.828;4.700;2023-05-29T01:51:20;11.93;;;5.83;;
17151;SDS011;8691;50.828;4.700;2023-05-29T01:53:56;7.67;;;5.93;;
17151;SDS011;8691;50.828;4.700;2023-05-29T01:56:33;9.70;;;6.13;;
17151;SDS011;8691;50.828;4.700;2023-05-29T01:59:10;9.27;;;5.60;;
17151;SDS011;8691;50.828;4.700;2023-05-29T02:01:47;10.23;;;5.90;;
17151;SDS011;8691;50.828;4.700;2023-05-29T02:04:24;7.63;;;5.53;;
17151;SDS011;8691;50.828;4.700;2023-05-29T02:07:00;8.67;;;5.27;;
17151;SDS011;8691;50.828;4.700;2023-05-29T02:09:37;8.13;;;5.60;;
17151;SDS011;8691;50.828;4.700;2023-05-29T02:12:13;8.70;;;6.37;;
17151;SDS011;8691;50.828;4.700;2023-05-29T02:14:50;11.85;;;7.68;;
17151;SDS011;8691;50.828;4.700;2023-05-29T02:17:27;11.63;;;7.83;;
17151;SDS011;8691;50.828;4.700;2023-05-29T02:20:04;9.93;;;6.00;;
17151;SDS011;8691;50.828;4.700;2023-05-29T02:22:41;9.63;;;5.47;;
17151;SDS011;8691;50.828;4.700;2023-05-29T02:25:17;9.37;;;6.43;;
17151;SDS011;8691;50.828;4.700;2023-05-29T02:27:54;8.37;;;5.40;;
17151;SDS011;8691;50.828;4.700;2023-05-29T02:30:31;7.93;;;5.33;;
17151;SDS011;8691;50.828;4.700;2023-05-29T02:33:07;7.60;;;5.63;;
17151;SDS011;8691;50.828;4.700;2023-05-29T02:35:44;7.67;;;5.60;;
17151;SDS011;8691;50.828;4.700;2023-05-29T02:38:21;7.63;;;5.77;;
17151;SDS011;8691;50.828;4.700;2023-05-29T02:40:57;14.40;;;5.83;;
17151;SDS011;8691;50.828;4.700;2023-05-29T02:43:34;10.40;;;6.03;;
17151;SDS011;8691;50.828;4.700;2023-05-29T02:46:11;8.60;;;5.83;;
17151;SDS011;8691;50.828;4.700;2023-05-29T02:48:47;9.10;;;6.57;;
17151;SDS011;8691;50.828;4.700;2023-05-29T02:51:24;11.90;;;6.60;;
17151;SDS011;8691;50.828;4.700;2023-05-29T02:54:01;9.57;;;5.43;;
17151;SDS011;8691;50.828;4.700;2023-05-29T02:56:38;10.80;;;5.50;;
17151;SDS011;8691;50.828;4.700;2023-05-29T02:59:15;9.73;;;4.90;;
17151;SDS011;8691;50.828;4.700;2023-05-29T03:01:51;9.30;;;4.63;;
17151;SDS011;8691;50.828;4.700;2023-05-29T03:04:28;6.90;;;5.13;;
17151;SDS011;8691;50.828;4.700;2023-05-29T03:07:05;8.63;;;5.00;;
17151;SDS011;8691;50.828;4.700;2023-05-29T03:09:41;9.87;;;5.40;;
17151;SDS011;8691;50.828;4.700;2023-05-29T03:12:18;9.00;;;4.63;;
17151;SDS011;8691;50.828;4.700;2023-05-29T03:14:55;9.37;;;5.60;;
17151;SDS011;8691;50.828;4.700;2023-05-29T03:17:31;7.73;;;5.10;;
17151;SDS011;8691;50.828;4.700;2023-05-29T03:20:08;9.90;;;4.67;;
17151;SDS011;8691;50.828;4.700;2023-05-29T03:22:45;7.97;;;4.93;;
17151;SDS011;8691;50.828;4.700;2023-05-29T03:25:22;9.20;;;4.67;;
17151;SDS011;8691;50.828;4.700;2023-05-29T03:27:59;10.10;;;4.37;;
17151;SDS011;8691;50.828;4.700;2023-05-29T03:30:35;9.60;;;4.40;;
17151;SDS011;8691;50.828;4.700;2023-05-29T03:33:12;7.57;;;3.90;;
17151;SDS011;8691;50.828;4.700;2023-05-29T03:35:49;8.50;;;4.37;;
17151;SDS011;8691;50.828;4.700;2023-05-29T03:38:25;7.80;;;4.00;;
17151;SDS011;8691;50.828;4.700;2023-05-29T03:41:02;11.03;;;4.27;;
17151;SDS011;8691;50.828;4.700;2023-05-29T03:43:39;6.83;;;3.90;;
17151;SDS011;8691;50.828;4.700;2023-05-29T03:46:15;11.20;;;3.80;;
17151;SDS011;8691;50.828;4.700;2023-05-29T03:48:52;9.67;;;3.90;;
17151;SDS011;8691;50.828;4.700;2023-05-29T03:51:28;11.23;;;4.07;;
17151;SDS011;8691;50.828;4.700;2023-05-29T03:54:05;8.53;;;3.47;;
17151;SDS011;8691;50.828;4.700;2023-05-29T03:56:42;9.90;;;3.73;;
17151;SDS011;8691;50.828;4.700;2023-05-29T03:59:18;8.20;;;3.73;;
17151;SDS011;8691;50.828;4.700;2023-05-29T04:01:55;7.63;;;3.13;;
17151;SDS011;8691;50.828;4.700;2023-05-29T04:04:32;7.67;;;3.27;;
17151;SDS011;8691;50.828;4.700;2023-05-29T04:07:08;11.47;;;3.37;;
17151;SDS011;8691;50.828;4.700;2023-05-29T04:09:45;6.47;;;3.50;;
17151;SDS011;8691;50.828;4.700;2023-05-29T04:12:22;8.83;;;3.17;;
17151;SDS011;8691;50.828;4.700;2023-05-29T04:14:59;10.20;;;2.97;;
17151;SDS011;8691;50.828;4.700;2023-05-29T04:17:36;10.97;;;2.90;;
17151;SDS011;8691;50.828;4.700;2023-05-29T04:20:13;6.70;;;2.47;;
17151;SDS011;8691;50.828;4.700;2023-05-29T04:22:50;3.97;;;3.03;;
17151;SDS011;8691;50.828;4.700;2023-05-29T04:25:26;6.23;;;2.70;;
17151;SDS011;8691;50.828;4.700;2023-05-29T04:28:03;7.70;;;3.00;;
17151;SDS011;8691;50.828;4.700;2023-05-29T04:30:40;7.80;;;2.40;;
17151;SDS011;8691;50.828;4.700;2023-05-29T04:33:17;9.82;;;3.67;;
17151;SDS011;8691;50.828;4.700;2023-05-29T04:35:53;11.13;;;2.60;;
17151;SDS011;8691;50.828;4.700;2023-05-29T04:38:31;7.60;;;2.90;;
17151;SDS011;8691;50.828;4.700;2023-05-29T04:41:07;7.10;;;2.63;;
17151;SDS011;8691;50.828;4.700;2023-05-29T04:43:44;8.93;;;2.73;;
17151;SDS011;8691;50.828;4.700;2023-05-29T04:46:21;8.67;;;2.90;;
17151;SDS011;8691;50.828;4.700;2023-05-29T04:48:57;5.27;;;2.30;;
17151;SDS011;8691;50.828;4.700;2023-05-29T04:51:34;8.63;;;2.60;;
17151;SDS011;8691;50.828;4.700;2023-05-29T04:54:11;8.43;;;2.43;;
17151;SDS011;8691;50.828;4.700;2023-05-29T04:56:47;7.13;;;2.87;;
17151;SDS011;8691;50.828;4.700;2023-05-29T04:59:24;6.93;;;3.03;;
17151;SDS011;8691;50.828;4.700;2023-05-29T05:02:01;7.73;;;2.30;;
17151;SDS011;8691;50.828;4.700;2023-05-29T05:04:37;7.90;;;2.87;;
17151;SDS011;8691;50.828;4.700;2023-05-29T05:07:14;7.30;;;2.40;;
17151;SDS011;8691;50.828;4.700;2023-05-29T05:09:51;6.17;;;2.37;;
17151;SDS011;8691;50.828;4.700;2023-05-29T05:12:27;7.63;;;2.70;;
17151;SDS011;8691;50.828;4.700;2023-05-29T05:15:04;6.37;;;2.23;;
17151;SDS011;8691;50.828;4.700;2023-05-29T05:17:41;11.37;;;2.70;;
17151;SDS011;8691;50.828;4.700;2023-05-29T05:20:17;5.80;;;2.20;;
17151;SDS011;8691;50.828;4.700;2023-05-29T05:22:54;7.33;;;2.40;;
17151;SDS011;8691;50.828;4.700;2023-05-29T05:25:31;7.83;;;2.60;;
17151;SDS011;8691;50.828;4.700;2023-05-29T05:28:08;9.07;;;2.83;;
17151;SDS011;8691;50.828;4.700;2023-05-29T05:30:44;4.97;;;2.43;;
17151;SDS011;8691;50.828;4.700;2023-05-29T05:33:21;6.80;;;2.43;;
17151;SDS011;8691;50.828;4.700;2023-05-29T05:35:57;8.33;;;2.30;;
17151;SDS011;8691;50.828;4.700;2023-05-29T05:38:34;7.37;;;3.07;;
17151;SDS011;8691;50.828;4.700;2023-05-29T05:41:11;4.20;;;2.10;;
17151;SDS011;8691;50.828;4.700;2023-05-29T05:43:48;8.83;;;2.60;;
17151;SDS011;8691;50.828;4.700;2023-05-29T05:46:24;7.83;;;2.27;;
17151;SDS011;8691;50.828;4.700;2023-05-29T05:49:01;6.07;;;2.13;;
17151;SDS011;8691;50.828;4.700;2023-05-29T05:51:38;7.40;;;2.40;;
17151;SDS011;8691;50.828;4.700;2023-05-29T05:54:15;6.07;;;1.87;;
17151;SDS011;8691;50.828;4.700;2023-05-29T05:56:52;6.67;;;2.30;;
17151;SDS011;8691;50.828;4.700;2023-05-29T05:59:28;6.83;;;2.53;;
17151;SDS011;8691;50.828;4.700;2023-05-29T06:02:05;7.00;;;2.40;;
17151;SDS011;8691;50.828;4.700;2023-05-29T06:04:42;8.95;;;2.97;;
17151;SDS011;8691;50.828;4.700;2023-05-29T06:07:19;7.27;;;2.60;;
17151;SDS011;8691;50.828;4.700;2023-05-29T06:09:55;8.33;;;2.80;;
17151;SDS011;8691;50.828;4.700;2023-05-29T06:12:32;8.00;;;2.50;;
17151;SDS011;8691;50.828;4.700;2023-05-29T06:15:09;7.30;;;2.10;;
17151;SDS011;8691;50.828;4.700;2023-05-29T06:17:45;6.37;;;2.50;;
17151;SDS011;8691;50.828;4.700;2023-05-29T06:20:22;6.77;;;2.13;;
17151;SDS011;8691;50.828;4.700;2023-05-29T06:22:59;6.17;;;2.20;;
17151;SDS011;8691;50.828;4.700;2023-05-29T06:25:35;6.37;;;2.07;;
17151;SDS011;8691;50.828;4.700;2023-05-29T06:28:12;9.80;;;2.63;;
17151;SDS011;8691;50.828;4.700;2023-05-29T06:30:49;6.10;;;2.40;;
17151;SDS011;8691;50.828;4.700;2023-05-29T06:33:25;6.10;;;2.13;;
17151;SDS011;8691;50.828;4.700;2023-05-29T06:36:03;8.52;;;2.75;;
17151;SDS011;8691;50.828;4.700;2023-05-29T06:38:40;7.33;;;2.53;;
17151;SDS011;8691;50.828;4.700;2023-05-29T06:41:16;9.07;;;2.37;;
17151;SDS011;8691;50.828;4.700;2023-05-29T06:43:54;7.50;;;2.07;;
17151;SDS011;8691;50.828;4.700;2023-05-29T06:46:30;7.23;;;2.50;;
17151;SDS011;8691;50.828;4.700;2023-05-29T06:49:07;4.97;;;2.30;;
17151;SDS011;8691;50.828;4.700;2023-05-29T06:51:44;6.37;;;2.13;;
17151;SDS011;8691;50.828;4.700;2023-05-29T06:54:20;6.97;;;2.13;;
17151;SDS011;8691;50.828;4.700;2023-05-29T06:56:57;8.03;;;2.80;;
17151;SDS011;8691;50.828;4.700;2023-05-29T06:59:34;8.23;;;2.67;;
17151;SDS011;8691;50.828;4.700;2023-05-29T07:02:10;7.43;;;2.40;;
17151;SDS011;8691;50.828;4.700;2023-05-29T07:04:47;6.33;;;2.00;;
17151;SDS011;8691;50.828;4.700;2023-05-29T07:07:24;5.83;;;2.03;;
17151;SDS011;8691;50.828;4.700;2023-05-29T07:10:00;6.60;;;2.10;;
17151;SDS011;8691;50.828;4.700;2023-05-29T07:12:38;5.17;;;2.30;;
17151;SDS011;8691;50.828;4.700;2023-05-29T07:15:14;7.50;;;2.43;;
17151;SDS011;8691;50.828;4.700;2023-05-29T07:17:51;8.20;;;2.23;;
17151;SDS011;8691;50.828;4.700;2023-05-29T07:20:28;8.03;;;2.30;;
17151;SDS011;8691;50.828;4.700;2023-05-29T07:23:04;6.53;;;2.23;;
17151;SDS011;8691;50.828;4.700;2023-05-29T07:25:41;6.23;;;2.27;;
17151;SDS011;8691;50.828;4.700;2023-05-29T07:28:18;7.13;;;2.17;;
17151;SDS011;8691;50.828;4.700;2023-05-29T07:30:54;7.43;;;2.50;;
17151;SDS011;8691;50.828;4.700;2023-05-29T07:33:31;6.27;;;2.23;;
17151;SDS011;8691;50.828;4.700;2023-05-29T07:36:08;6.15;;;2.40;;
17151;SDS011;8691;50.828;4.700;2023-05-29T07:38:45;6.77;;;2.60;;
17151;SDS011;8691;50.828;4.700;2023-05-29T07:41:21;6.30;;;2.40;;
17151;SDS011;8691;50.828;4.700;2023-05-29T07:43:58;6.43;;;1.90;;
17151;SDS011;8691;50.828;4.700;2023-05-29T07:46:34;5.03;;;2.30;;
17151;SDS011;8691;50.828;4.700;2023-05-29T07:49:11;5.27;;;2.33;;
17151;SDS011;8691;50.828;4.700;2023-05-29T07:51:48;10.20;;;2.27;;
17151;SDS011;8691;50.828;4.700;2023-05-29T07:54:25;7.53;;;2.27;;
17151;SDS011;8691;50.828;4.700;2023-05-29T07:57:02;3.83;;;1.60;;
17151;SDS011;8691;50.828;4.700;2023-05-29T07:59:42;7.50;;;2.27;;
17151;SDS011;8691;50.828;4.700;2023-05-29T08:02:18;8.63;;;2.50;;
17151;SDS011;8691;50.828;4.700;2023-05-29T08:04:55;6.67;;;2.17;;
17151;SDS011;8691;50.828;4.700;2023-05-29T08:07:31;6.87;;;2.03;;
17151;SDS011;8691;50.828;4.700;2023-05-29T08:10:08;8.90;;;2.80;;
17151;SDS011;8691;50.828;4.700;2023-05-29T08:12:45;6.00;;;2.30;;
17151;SDS011;8691;50.828;4.700;2023-05-29T08:15:21;8.57;;;2.50;;
17151;SDS011;8691;50.828;4.700;2023-05-29T08:17:58;9.17;;;2.53;;
17151;SDS011;8691;50.828;4.700;2023-05-29T08:20:35;5.13;;;2.10;;
17151;SDS011;8691;50.828;4.700;2023-05-29T08:23:11;6.13;;;2.50;;
17151;SDS011;8691;50.828;4.700;2023-05-29T08:25:48;6.47;;;2.23;;
17151;SDS011;8691;50.828;4.700;2023-05-29T08:28:25;6.53;;;2.10;;
17151;SDS011;8691;50.828;4.700;2023-05-29T08:31:01;6.10;;;2.10;;
17151;SDS011;8691;50.828;4.700;2023-05-29T08:33:38;4.83;;;2.07;;
17151;SDS011;8691;50.828;4.700;2023-05-29T08:36:15;6.80;;;2.33;;
17151;SDS011;8691;50.828;4.700;2023-05-29T08:38:51;8.03;;;2.27;;
17151;SDS011;8691;50.828;4.700;2023-05-29T08:41:30;5.40;;;2.13;;
17151;SDS011;8691;50.828;4.700;2023-05-29T08:44:05;6.73;;;2.10;;
17151;SDS011;8691;50.828;4.700;2023-05-29T08:46:42;7.10;;;2.42;;
17151;SDS011;8691;50.828;4.700;2023-05-29T08:49:19;6.67;;;2.07;;
17151;SDS011;8691;50.828;4.700;2023-05-29T08:52:02;7.17;;;2.50;;
17151;SDS011;8691;50.828;4.700;2023-05-29T08:54:39;6.93;;;2.50;;
17151;SDS011;8691;50.828;4.700;2023-05-29T08:57:15;6.43;;;2.60;;
17151;SDS011;8691;50.828;4.700;2023-05-29T08:59:52;4.97;;;2.27;;
17151;SDS011;8691;50.828;4.700;2023-05-29T09:02:29;7.22;;;2.67;;
17151;SDS011;8691;50.828;4.700;2023-05-29T09:05:06;6.33;;;2.20;;
17151;SDS011;8691;50.828;4.700;2023-05-29T09:07:42;7.53;;;2.27;;
17151;SDS011;8691;50.828;4.700;2023-05-29T09:10:19;6.27;;;2.60;;
17151;SDS011;8691;50.828;4.700;2023-05-29T09:12:56;7.60;;;2.20;;
17151;SDS011;8691;50.828;4.700;2023-05-29T09:15:32;5.97;;;2.17;;
17151;SDS011;8691;50.828;4.700;2023-05-29T09:18:09;5.83;;;2.10;;
17151;SDS011;8691;50.828;4.700;2023-05-29T09:20:46;9.00;;;2.53;;
17151;SDS011;8691;50.828;4.700;2023-05-29T09:23:22;7.23;;;2.47;;
17151;SDS011;8691;50.828;4.700;2023-05-29T09:26:02;5.33;;;2.30;;
17151;SDS011;8691;50.828;4.700;2023-05-29T09:28:35;8.83;;;1.97;;
17151;SDS011;8691;50.828;4.700;2023-05-29T09:31:15;8.63;;;2.83;;
17151;SDS011;8691;50.828;4.700;2023-05-29T09:33:55;8.10;;;2.77;;
17151;SDS011;8691;50.828;4.700;2023-05-29T09:36:32;7.35;;;2.55;;
17151;SDS011;8691;50.828;4.700;2023-05-29T09:39:09;7.10;;;2.80;;
17151;SDS011;8691;50.828;4.700;2023-05-29T09:41:45;7.97;;;2.70;;
17151;SDS011;8691;50.828;4.700;2023-05-29T09:44:22;8.97;;;2.40;;
17151;SDS011;8691;50.828;4.700;2023-05-29T09:46:59;6.72;;;2.50;;
17151;SDS011;8691;50.828;4.700;2023-05-29T09:49:37;8.30;;;2.90;;
17151;SDS011;8691;50.828;4.700;2023-05-29T09:52:12;8.73;;;2.50;;
17151;SDS011;8691;50.828;4.700;2023-05-29T09:54:49;6.60;;;2.37;;
17151;SDS011;8691;50.828;4.700;2023-05-29T09:57:25;6.33;;;2.30;;
17151;SDS011;8691;50.828;4.700;2023-05-29T10:00:02;9.27;;;2.33;;
17151;SDS011;8691;50.828;4.700;2023-05-29T10:02:39;8.00;;;2.30;;
17151;SDS011;8691;50.828;4.700;2023-05-29T10:05:15;9.63;;;2.50;;
17151;SDS011;8691;50.828;4.700;2023-05-29T10:07:53;6.00;;;2.30;;
17151;SDS011;8691;50.828;4.700;2023-05-29T10:10:29;6.50;;;2.17;;
17151;SDS011;8691;50.828;4.700;2023-05-29T10:13:05;3.77;;;1.80;;
17151;SDS011;8691;50.828;4.700;2023-05-29T10:15:43;8.40;;;2.63;;
17151;SDS011;8691;50.828;4.700;2023-05-29T10:18:26;5.53;;;2.20;;
17151;SDS011;8691;50.828;4.700;2023-05-29T10:21:04;7.57;;;2.60;;
17151;SDS011;8691;50.828;4.700;2023-05-29T10:23:42;6.83;;;2.20;;
17151;SDS011;8691;50.828;4.700;2023-05-29T10:26:21;5.50;;;2.10;;
17151;SDS011;8691;50.828;4.700;2023-05-29T10:29:05;9.50;;;2.53;;
17151;SDS011;8691;50.828;4.700;2023-05-29T10:40:09;6.53;;;2.60;;
17151;SDS011;8691;50.828;4.700;2023-05-29T10:42:48;6.83;;;2.10;;
17151;SDS011;8691;50.828;4.700;2023-05-29T10:50:49;8.33;;;2.37;;
17151;SDS011;8691;50.828;4.700;2023-05-29T10:53:26;8.83;;;2.40;;
17151;SDS011;8691;50.828;4.700;2023-05-29T10:56:03;8.07;;;2.60;;
17151;SDS011;8691;50.828;4.700;2023-05-29T10:58:40;5.27;;;2.23;;
17151;SDS011;8691;50.828;4.700;2023-05-29T11:01:17;8.23;;;2.30;;
17151;SDS011;8691;50.828;4.700;2023-05-29T11:04:40;7.57;;;2.50;;
17151;SDS011;8691;50.828;4.700;2023-05-29T11:06:49;7.60;;;2.57;;
17151;SDS011;8691;50.828;4.700;2023-05-29T11:12:09;8.47;;;2.30;;
17151;SDS011;8691;50.828;4.700;2023-05-29T11:14:54;7.90;;;2.53;;
17151;SDS011;8691;50.828;4.700;2023-05-29T11:20:17;8.00;;;2.57;;
17151;SDS011;8691;50.828;4.700;2023-05-29T11:25:36;5.80;;;1.87;;
17151;SDS011;8691;50.828;4.700;2023-05-29T11:28:13;7.47;;;2.63;;
17151;SDS011;8691;50.828;4.700;2023-05-29T11:30:49;6.80;;;2.30;;
17151;SDS011;8691;50.828;4.700;2023-05-29T11:33:26;6.77;;;1.90;;
17151;SDS011;8691;50.828;4.700;2023-05-29T11:36:03;9.90;;;2.35;;
17151;SDS011;8691;50.828;4.700;2023-05-29T11:38:39;6.37;;;2.50;;
17151;SDS011;8691;50.828;4.700;2023-05-29T11:41:16;6.43;;;2.13;;
17151;SDS011;8691;50.828;4.700;2023-05-29T11:43:59;7.30;;;2.20;;
17151;SDS011;8691;50.828;4.700;2023-05-29T11:46:36;8.07;;;2.97;;
17151;SDS011;8691;50.828;4.700;2023-05-29T11:49:12;5.73;;;2.20;;
17151;SDS011;8691;50.828;4.700;2023-05-29T11:51:49;8.60;;;2.23;;
17151;SDS011;8691;50.828;4.700;2023-05-29T11:54:26;7.60;;;2.53;;
17151;SDS011;8691;50.828;4.700;2023-05-29T11:57:02;6.63;;;2.00;;
17151;SDS011;8691;50.828;4.700;2023-05-29T11:59:39;8.17;;;2.33;;
17151;SDS011;8691;50.828;4.700;2023-05-29T12:02:16;6.67;;;2.43;;
17151;SDS011;8691;50.828;4.700;2023-05-29T12:05:02;7.17;;;2.27;;
17151;SDS011;8691;50.828;4.700;2023-05-29T12:07:38;4.93;;;2.20;;
17151;SDS011;8691;50.828;4.700;2023-05-29T12:10:15;6.90;;;1.97;;
17151;SDS011;8691;50.828;4.700;2023-05-29T12:12:55;6.70;;;1.93;;
17151;SDS011;8691;50.828;4.700;2023-05-29T12:15:31;8.77;;;2.40;;
17151;SDS011;8691;50.828;4.700;2023-05-29T12:18:07;6.63;;;2.00;;
17151;SDS011;8691;50.828;4.700;2023-05-29T12:20:44;6.03;;;2.37;;
17151;SDS011;8691;50.828;4.700;2023-05-29T12:23:21;4.93;;;2.37;;
17151;SDS011;8691;50.828;4.700;2023-05-29T12:25:58;4.93;;;2.00;;
17151;SDS011;8691;50.828;4.700;2023-05-29T12:28:35;8.57;;;2.73;;
17151;SDS011;8691;50.828;4.700;2023-05-29T12:31:11;6.33;;;2.00;;
17151;SDS011;8691;50.828;4.700;2023-05-29T12:33:48;7.73;;;2.13;;
17151;SDS011;8691;50.828;4.700;2023-05-29T12:36:25;5.20;;;2.38;;
17151;SDS011;8691;50.828;4.700;2023-05-29T12:39:05;8.40;;;2.40;;
17151;SDS011;8691;50.828;4.700;2023-05-29T12:41:38;5.97;;;2.27;;
17151;SDS011;8691;50.828;4.700;2023-05-29T12:44:15;6.03;;;2.30;;
17151;SDS011;8691;50.828;4.700;2023-05-29T12:46:55;6.90;;;2.17;;
17151;SDS011;8691;50.828;4.700;2023-05-29T12:49:28;5.60;;;2.13;;
17151;SDS011;8691;50.828;4.700;2023-05-29T12:52:05;4.47;;;1.80;;
17151;SDS011;8691;50.828;4.700;2023-05-29T12:54:41;5.00;;;2.20;;
17151;SDS011;8691;50.828;4.700;2023-05-29T12:57:18;5.53;;;2.10;;
17151;SDS011;8691;50.828;4.700;2023-05-29T12:59:55;3.73;;;1.90;;
17151;SDS011;8691;50.828;4.700;2023-05-29T13:02:31;5.73;;;1.93;;
17151;SDS011;8691;50.828;4.700;2023-05-29T13:05:08;5.03;;;2.00;;
17151;SDS011;8691;50.828;4.700;2023-05-29T13:07:46;6.47;;;2.17;;
17151;SDS011;8691;50.828;4.700;2023-05-29T13:10:25;3.57;;;1.90;;
17151;SDS011;8691;50.828;4.700;2023-05-29T13:13:01;8.37;;;2.03;;
17151;SDS011;8691;50.828;4.700;2023-05-29T13:15:38;8.32;;;2.55;;
17151;SDS011;8691;50.828;4.700;2023-05-29T13:18:14;5.67;;;2.30;;
17151;SDS011;8691;50.828;4.700;2023-05-29T13:20:51;7.37;;;2.20;;
17151;SDS011;8691;50.828;4.700;2023-05-29T13:23:28;4.20;;;1.93;;
17151;SDS011;8691;50.828;4.700;2023-05-29T13:26:04;5.03;;;2.03;;
17151;SDS011;8691;50.828;4.700;2023-05-29T13:28:41;5.60;;;2.20;;
17151;SDS011;8691;50.828;4.700;2023-05-29T13:31:18;6.43;;;2.80;;
17151;SDS011;8691;50.828;4.700;2023-05-29T13:33:55;5.73;;;2.27;;
17151;SDS011;8691;50.828;4.700;2023-05-29T13:36:31;4.70;;;2.23;;
17151;SDS011;8691;50.828;4.700;2023-05-29T13:39:08;4.87;;;2.00;;
17151;SDS011;8691;50.828;4.700;2023-05-29T13:41:45;7.00;;;1.97;;
17151;SDS011;8691;50.828;4.700;2023-05-29T13:44:21;7.17;;;2.83;;
17151;SDS011;8691;50.828;4.700;2023-05-29T13:46:59;6.53;;;2.42;;
17151;SDS011;8691;50.828;4.700;2023-05-29T13:49:36;8.33;;;2.43;;
17151;SDS011;8691;50.828;4.700;2023-05-29T13:52:13;6.90;;;2.63;;
17151;SDS011;8691;50.828;4.700;2023-05-29T13:54:50;7.97;;;2.30;;
17151;SDS011;8691;50.828;4.700;2023-05-29T13:57:26;7.87;;;2.60;;
17151;SDS011;8691;50.828;4.700;2023-05-29T14:00:04;5.70;;;2.07;;
17151;SDS011;8691;50.828;4.700;2023-05-29T14:02:40;6.65;;;2.50;;
17151;SDS011;8691;50.828;4.700;2023-05-29T14:05:17;4.73;;;2.27;;
17151;SDS011;8691;50.828;4.700;2023-05-29T14:07:53;6.47;;;2.20;;
17151;SDS011;8691;50.828;4.700;2023-05-29T14:10:30;6.72;;;2.33;;
17151;SDS011;8691;50.828;4.700;2023-05-29T14:13:07;5.63;;;2.17;;
17151;SDS011;8691;50.828;4.700;2023-05-29T14:15:44;5.20;;;1.87;;
17151;SDS011;8691;50.828;4.700;2023-05-29T14:18:20;5.07;;;2.20;;
17151;SDS011;8691;50.828;4.700;2023-05-29T14:20:57;4.50;;;2.07;;
17151;SDS011;8691;50.828;4.700;2023-05-29T14:23:34;6.07;;;2.10;;
17151;SDS011;8691;50.828;4.700;2023-05-29T14:26:10;5.07;;;1.97;;
17151;SDS011;8691;50.828;4.700;2023-05-29T14:28:47;5.80;;;2.20;;
17151;SDS011;8691;50.828;4.700;2023-05-29T14:31:23;6.27;;;2.50;;
17151;SDS011;8691;50.828;4.700;2023-05-29T14:34:00;5.53;;;2.30;;
17151;SDS011;8691;50.828;4.700;2023-05-29T14:36:37;7.67;;;2.40;;
17151;SDS011;8691;50.828;4.700;2023-05-29T14:39:14;7.50;;;2.50;;
17151;SDS011;8691;50.828;4.700;2023-05-29T14:41:51;6.50;;;2.20;;
17151;SDS011;8691;50.828;4.700;2023-05-29T14:44:28;5.60;;;2.30;;
17151;SDS011;8691;50.828;4.700;2023-05-29T14:47:04;6.00;;;2.33;;
17151;SDS011;8691;50.828;4.700;2023-05-29T14:49:41;9.43;;;2.90;;
17151;SDS011;8691;50.828;4.700;2023-05-29T14:52:18;5.80;;;2.53;;
17151;SDS011;8691;50.828;4.700;2023-05-29T14:54:54;5.47;;;2.30;;
17151;SDS011;8691;50.828;4.700;2023-05-29T14:57:31;6.30;;;2.10;;
17151;SDS011;8691;50.828;4.700;2023-05-29T15:00:08;6.70;;;2.37;;
17151;SDS011;8691;50.828;4.700;2023-05-29T15:02:44;7.30;;;2.63;;
17151;SDS011;8691;50.828;4.700;2023-05-29T15:05:21;3.93;;;1.90;;
17151;SDS011;8691;50.828;4.700;2023-05-29T15:07:58;7.95;;;2.30;;
17151;SDS011;8691;50.828;4.700;2023-05-29T15:10:35;8.70;;;2.45;;
17151;SDS011;8691;50.828;4.700;2023-05-29T15:13:11;4.63;;;2.10;;
17151;SDS011;8691;50.828;4.700;2023-05-29T15:15:48;4.47;;;2.23;;
17151;SDS011;8691;50.828;4.700;2023-05-29T15:18:26;6.62;;;2.80;;
17151;SDS011;8691;50.828;4.700;2023-05-29T15:21:02;7.87;;;2.33;;
17151;SDS011;8691;50.828;4.700;2023-05-29T15:23:39;4.43;;;2.10;;
17151;SDS011;8691;50.828;4.700;2023-05-29T15:26:16;7.23;;;2.07;;
17151;SDS011;8691;50.828;4.700;2023-05-29T15:28:52;3.67;;;1.70;;
17151;SDS011;8691;50.828;4.700;2023-05-29T15:31:30;5.40;;;2.40;;
17151;SDS011;8691;50.828;4.700;2023-05-29T15:34:06;5.17;;;2.30;;
17151;SDS011;8691;50.828;4.700;2023-05-29T15:36:43;4.73;;;2.10;;
17151;SDS011;8691;50.828;4.700;2023-05-29T15:39:20;4.47;;;2.17;;
17151;SDS011;8691;50.828;4.700;2023-05-29T15:41:56;6.27;;;2.30;;
17151;SDS011;8691;50.828;4.700;2023-05-29T15:44:33;6.53;;;2.03;;
17151;SDS011;8691;50.828;4.700;2023-05-29T15:47:10;6.10;;;2.10;;
17151;SDS011;8691;50.828;4.700;2023-05-29T15:49:46;5.73;;;2.43;;
17151;SDS011;8691;50.828;4.700;2023-05-29T15:52:24;7.30;;;2.20;;
17151;SDS011;8691;50.828;4.700;2023-05-29T15:55:00;5.50;;;1.90;;
17151;SDS011;8691;50.828;4.700;2023-05-29T15:57:37;6.30;;;2.13;;
17151;SDS011;8691;50.828;4.700;2023-05-29T16:00:14;4.50;;;1.90;;
17151;SDS011;8691;50.828;4.700;2023-05-29T16:02:50;4.57;;;2.00;;
17151;SDS011;8691;50.828;4.700;2023-05-29T16:05:27;7.30;;;2.10;;
17151;SDS011;8691;50.828;4.700;2023-05-29T16:08:04;3.47;;;1.83;;
17151;SDS011;8691;50.828;4.700;2023-05-29T16:10:40;10.73;;;2.30;;
17151;SDS011;8691;50.828;4.700;2023-05-29T16:13:17;7.37;;;2.10;;
17151;SDS011;8691;50.828;4.700;2023-05-29T16:15:54;4.27;;;1.70;;
17151;SDS011;8691;50.828;4.700;2023-05-29T16:18:46;4.17;;;2.40;;
17151;SDS011;8691;50.828;4.700;2023-05-29T16:21:10;5.43;;;2.07;;